Time;durP1;ratioP1;P1;durP2;ratioP2;P2;SDS_P1;SDS_P2;PMS_P1;PMS_P2;Temp;Humidity;BMP_temperature;BMP_pressure;BME280_temperature;BME280_humidity;BME280_pressure;Samples;Min_cycle;Max_cycle;Signal;HPM_P1;HPM_P2
2023/01/21 00:00:35;;;;;;;66.90;28.13;;;-2.20;99.50;;;;;;5135959;27;20047;-32
2023/01/21 00:03:01;;;;;;;66.23;27.40;;;-2.30;99.90;;;;;;5135940;27;20122;-33
2023/01/21 00:05:26;;;;;;;70.40;26.97;;;-2.30;99.90;;;;;;5100635;27;20039;-32
2023/01/21 00:07:52;;;;;;;71.63;27.67;;;-2.30;99.90;;;;;;5117401;27;20046;-32
2023/01/21 00:10:18;;;;;;;72.80;24.60;;;-2.40;99.90;;;;;;5135766;27;20170;-32
2023/01/21 00:12:44;;;;;;;63.10;24.00;;;-2.50;99.90;;;;;;5135739;27;20043;-32
2023/01/21 00:15:10;;;;;;;78.93;30.20;;;-2.60;99.90;;;;;;5136189;27;20087;-32
2023/01/21 00:17:35;;;;;;;71.60;28.27;;;-2.60;99.90;;;;;;5135266;27;20047;-31
2023/01/21 00:20:03;;;;;;;82.10;28.13;;;-2.70;99.90;;;;;;5135773;27;20362;-31
2023/01/21 00:22:29;;;;;;;83.30;29.27;;;-2.80;99.90;;;;;;5117291;27;20489;-31
2023/01/21 00:24:54;;;;;;;76.17;29.00;;;-2.90;99.90;;;;;;5135477;27;20163;-31
2023/01/21 00:27:20;;;;;;;84.73;29.07;;;-2.90;99.90;;;;;;5135349;27;20043;-31
2023/01/21 00:29:46;;;;;;;83.30;28.57;;;-2.90;99.90;;;;;;5135301;27;20043;-32
2023/01/21 00:32:11;;;;;;;83.47;27.87;;;-2.90;99.90;;;;;;5135849;27;20043;-31
2023/01/21 00:34:37;;;;;;;86.77;30.17;;;-2.90;99.90;;;;;;5117833;27;20433;-31
2023/01/21 00:37:03;;;;;;;91.80;30.07;;;-2.90;99.90;;;;;;5117524;27;20369;-31
2023/01/21 00:39:28;;;;;;;87.20;29.90;;;-3.00;99.90;;;;;;5134858;27;20049;-31
2023/01/21 00:41:54;;;;;;;91.40;29.63;;;-3.00;99.90;;;;;;5116949;27;20039;-31
2023/01/21 00:44:20;;;;;;;99.33;30.00;;;-3.00;99.90;;;;;;5135627;27;20096;-31
2023/01/21 00:46:45;;;;;;;97.40;31.03;;;-3.00;99.90;;;;;;5135017;27;20066;-31
2023/01/21 00:49:11;;;;;;;112.10;33.13;;;-3.10;99.90;;;;;;5135860;27;20096;-30
2023/01/21 00:51:37;;;;;;;110.93;33.73;;;-3.10;99.90;;;;;;5135360;27;20123;-31
2023/01/21 00:54:02;;;;;;;103.83;31.27;;;-3.20;99.90;;;;;;5099588;27;20039;-30
2023/01/21 00:56:28;;;;;;;112.17;32.20;;;-3.20;99.90;;;;;;5135765;27;20047;-30
2023/01/21 00:58:54;;;;;;;115.77;33.40;;;-3.00;99.90;;;;;;5134907;27;20076;-31
2023/01/21 01:01:21;;;;;;;110.40;31.57;;;-3.10;99.90;;;;;;5135685;27;20066;-31
2023/01/21 01:03:48;;;;;;;88.40;30.93;;;-3.10;99.90;;;;;;5135640;27;20359;-30
2023/01/21 01:06:19;;;;;;;122.23;33.30;;;-3.20;99.90;;;;;;5135296;27;20062;-30
2023/01/21 01:08:46;;;;;;;115.80;32.90;;;-3.20;99.90;;;;;;5134822;27;20047;-31
2023/01/21 01:11:12;;;;;;;101.97;31.27;;;-3.20;99.90;;;;;;5134728;27;20039;-30
2023/01/21 01:13:38;;;;;;;115.83;32.87;;;-3.20;99.90;;;;;;5116640;27;20043;-30
2023/01/21 01:16:05;;;;;;;116.20;32.60;;;-3.20;99.90;;;;;;5116564;27;20095;-30
2023/01/21 01:18:32;;;;;;;125.83;33.63;;;-3.20;99.90;;;;;;5116856;28;20047;-30
2023/01/21 01:20:58;;;;;;;116.23;31.83;;;-3.30;99.90;;;;;;5135209;27;20459;-30
2023/01/21 01:23:25;;;;;;;109.70;30.73;;;-3.20;99.90;;;;;;5134382;28;20131;-30
2023/01/21 01:26:02;;;;;;;122.97;31.13;;;-3.20;99.90;;;;;;5134901;28;20046;-31
2023/01/21 01:28:28;;;;;;;118.60;31.00;;;-3.30;99.90;;;;;;5135765;27;20039;-30
2023/01/21 01:30:55;;;;;;;115.50;30.87;;;-3.30;99.90;;;;;;5120652;27;20100;-30
2023/01/21 01:33:21;;;;;;;124.67;32.53;;;-3.30;99.90;;;;;;5138862;27;20106;-31
2023/01/21 01:35:48;;;;;;;119.83;32.07;;;-3.30;99.90;;;;;;5120500;27;20377;-31
2023/01/21 01:38:15;;;;;;;129.77;34.07;;;-3.30;99.90;;;;;;5138747;27;20102;-30
2023/01/21 01:40:41;;;;;;;131.87;34.33;;;-3.30;99.90;;;;;;5138683;27;20183;-30
2023/01/21 01:43:18;;;;;;;130.93;32.27;;;-3.30;99.90;;;;;;5138663;27;20081;-30
2023/01/21 01:45:44;;;;;;;138.73;33.67;;;-3.30;99.90;;;;;;5138562;27;20079;-31
2023/01/21 01:48:17;;;;;;;134.93;33.33;;;-3.40;99.90;;;;;;5138459;27;20081;-31
2023/01/21 01:50:43;;;;;;;118.03;31.17;;;-3.50;99.90;;;;;;5138476;27;20090;-30
2023/01/21 01:53:10;;;;;;;141.87;34.20;;;-3.40;99.90;;;;;;5138490;27;20086;-30
2023/01/21 01:55:37;;;;;;;140.97;34.00;;;-3.40;99.90;;;;;;5138669;27;20043;-30
2023/01/21 01:58:07;;;;;;;140.07;33.47;;;-3.50;99.90;;;;;;5120067;27;20103;-30
2023/01/21 02:00:33;;;;;;;117.27;32.30;;;-3.50;99.90;;;;;;5119899;27;20051;-30
2023/01/21 02:05:44;;;;;;;105.70;30.30;;;-3.60;99.90;;;;;;5120376;27;20095;-31
2023/01/21 02:08:10;;;;;;;133.60;34.33;;;-3.70;99.90;;;;;;5138011;27;20035;-31
2023/01/21 02:10:36;;;;;;;148.40;35.50;;;-3.70;99.90;;;;;;5138136;27;20047;-30
2023/01/21 02:13:03;;;;;;;137.93;35.30;;;-3.70;99.90;;;;;;5119763;27;20049;-31
2023/01/21 02:15:45;;;;;;;136.90;34.23;;;-3.70;99.90;;;;;;5120230;27;20043;-30
2023/01/21 02:18:37;;;;;;;151.83;35.37;;;-3.70;99.90;;;;;;5138006;27;20043;-31
2023/01/21 02:21:09;;;;;;;157.40;35.53;;;-3.60;99.90;;;;;;5105759;27;20084;-30
2023/01/21 02:24:05;;;;;;;138.40;32.60;;;-3.60;99.90;;;;;;5138746;27;20119;-31
2023/01/21 02:26:49;;;;;;;139.83;33.97;;;-3.60;99.90;;;;;;5138303;27;20039;-31
2023/01/21 02:29:54;;;;;;;137.70;33.87;;;-3.60;99.90;;;;;;5137651;27;20054;-31
2023/01/21 02:33:02;;;;;;;137.47;31.73;;;-3.60;99.90;;;;;;5120185;27;20378;-31
2023/01/21 02:36:07;;;;;;;125.93;33.20;;;-3.50;99.90;;;;;;5119881;27;20051;-31
2023/01/21 02:38:55;;;;;;;152.97;35.27;;;-3.50;99.90;;;;;;5086410;27;20062;-31
2023/01/21 02:41:57;;;;;;;158.57;37.70;;;-3.50;99.90;;;;;;5137683;27;20512;-31
2023/01/21 02:44:33;;;;;;;152.83;36.23;;;-3.50;99.90;;;;;;5085259;27;20146;-30
2023/01/21 02:47:30;;;;;;;152.23;34.97;;;-3.40;99.90;;;;;;5119475;27;20043;-31
2023/01/21 02:50:05;;;;;;;152.20;38.30;;;-3.40;99.90;;;;;;5137156;27;20103;-32
2023/01/21 02:52:31;;;;;;;178.17;40.67;;;-3.30;99.90;;;;;;5137986;27;20055;-30
2023/01/21 02:55:00;;;;;;;150.67;39.67;;;-3.20;99.90;;;;;;5137230;27;20118;-30
2023/01/21 02:57:47;;;;;;;166.00;40.10;;;-3.10;99.90;;;;;;5137211;27;20051;-32
2023/01/21 03:00:25;;;;;;;165.43;40.33;;;-3.10;99.90;;;;;;5137246;27;20075;-31
2023/01/21 03:02:50;;;;;;;192.67;42.03;;;-3.00;99.90;;;;;;5137163;27;20050;-31
2023/01/21 03:05:40;;;;;;;167.40;40.87;;;-3.00;99.90;;;;;;5137069;27;20051;-30
2023/01/21 03:08:21;;;;;;;160.67;37.90;;;-3.00;99.90;;;;;;5136941;27;20043;-31
2023/01/21 03:11:02;;;;;;;161.20;38.83;;;-3.00;99.90;;;;;;5118905;27;20047;-31
2023/01/21 03:19:21;;;;;;;173.87;38.87;;;-3.00;99.90;;;;;;5137410;27;20154;-30
2023/01/21 03:21:49;;;;;;;151.43;38.07;;;-3.10;99.90;;;;;;5136749;27;20082;-30
2023/01/21 03:24:15;;;;;;;149.47;38.00;;;-3.10;99.90;;;;;;5136721;27;20053;-31
2023/01/21 03:26:46;;;;;;;144.50;40.03;;;-3.00;99.90;;;;;;5136619;27;20155;-31
2023/01/21 03:29:21;;;;;;;171.83;40.33;;;-3.00;99.90;;;;;;5119326;27;20079;-31
2023/01/21 03:31:52;;;;;;;165.77;40.13;;;-3.00;99.90;;;;;;5136688;27;20053;-31
2023/01/21 03:34:21;;;;;;;150.40;38.90;;;-2.90;99.90;;;;;;5137414;27;20051;-30
2023/01/21 03:37:05;;;;;;;168.57;40.70;;;-2.90;99.90;;;;;;5136498;27;20047;-31
2023/01/21 03:39:47;;;;;;;146.20;37.00;;;-2.90;99.90;;;;;;5136438;27;20047;-29
2023/01/21 03:42:13;;;;;;;135.93;34.17;;;-3.00;99.90;;;;;;5118952;27;20109;-30
2023/01/21 03:44:40;;;;;;;127.87;34.80;;;-3.10;99.90;;;;;;5136305;27;20108;-30
2023/01/21 03:47:33;;;;;;;127.67;32.70;;;-3.10;99.90;;;;;;5136153;27;20039;-30
2023/01/21 03:50:06;;;;;;;149.47;36.73;;;-3.10;99.90;;;;;;5135740;27;20446;-30
2023/01/21 03:52:32;;;;;;;151.77;36.60;;;-2.90;99.90;;;;;;5135424;27;20047;-30
2023/01/21 03:54:58;;;;;;;173.50;42.43;;;-2.30;99.90;;;;;;5118409;27;20105;-30
2023/01/21 03:57:24;;;;;;;174.40;43.03;;;-2.50;99.90;;;;;;5137182;27;20039;-31
2023/01/21 03:59:49;;;;;;;161.00;42.60;;;-2.40;99.90;;;;;;5136271;27;20512;-30
2023/01/21 04:02:18;;;;;;;162.83;41.37;;;-2.30;99.90;;;;;;5135932;27;20485;-30
2023/01/21 04:04:45;;;;;;;168.33;42.27;;;-2.20;99.90;;;;;;5135880;27;20509;-30
2023/01/21 04:07:12;;;;;;;173.80;41.97;;;-2.10;99.90;;;;;;5135842;27;20051;-30
2023/01/21 04:09:38;;;;;;;168.33;39.23;;;-2.00;99.90;;;;;;5136078;27;20047;-30
2023/01/21 04:12:03;;;;;;;164.97;41.27;;;-1.70;99.90;;;;;;5100704;27;20099;-30
2023/01/21 04:14:29;;;;;;;182.87;43.53;;;-2.00;99.90;;;;;;5117560;27;20047;-30
2023/01/21 04:16:55;;;;;;;169.50;44.87;;;-1.90;99.90;;;;;;5117624;27;20489;-30
2023/01/21 04:19:21;;;;;;;169.53;42.60;;;-1.90;99.90;;;;;;5135599;27;20055;-30
2023/01/21 04:21:47;;;;;;;172.70;44.00;;;-1.90;99.90;;;;;;5135603;27;20122;-30
2023/01/21 04:24:13;;;;;;;192.70;44.93;;;-1.90;99.90;;;;;;5135864;27;20492;-33
2023/01/21 04:26:38;;;;;;;165.10;43.53;;;-1.80;99.90;;;;;;5135413;27;20043;-30
2023/01/21 04:29:04;;;;;;;157.20;43.03;;;-1.80;99.90;;;;;;5135625;27;20107;-30
2023/01/21 04:31:30;;;;;;;175.50;42.87;;;-1.80;99.90;;;;;;5135914;27;20043;-31
2023/01/21 04:33:55;;;;;;;166.57;40.73;;;-1.80;99.90;;;;;;5135616;27;20537;-31
2023/01/21 04:36:21;;;;;;;176.03;39.37;;;-1.90;99.90;;;;;;5134968;27;20053;-30
2023/01/21 04:38:47;;;;;;;154.03;40.23;;;-1.60;99.90;;;;;;5135248;27;20047;-30
2023/01/21 04:41:13;;;;;;;178.13;42.33;;;-2.00;99.90;;;;;;5117051;27;20035;-30
2023/01/21 04:43:38;;;;;;;158.63;38.37;;;-2.00;99.90;;;;;;5135168;27;20047;-30
2023/01/21 04:46:04;;;;;;;137.93;39.73;;;-2.00;99.90;;;;;;5117043;27;20389;-30
2023/01/21 04:48:30;;;;;;;146.17;41.30;;;-2.00;99.90;;;;;;5135852;27;20127;-31
2023/01/21 04:50:56;;;;;;;154.00;42.87;;;-1.90;99.90;;;;;;5134600;27;20059;-30
2023/01/21 04:53:22;;;;;;;159.83;42.27;;;-1.90;99.90;;;;;;5116737;27;20115;-30
2023/01/21 04:55:51;;;;;;;173.33;44.43;;;-1.90;99.90;;;;;;5134952;27;20035;-30
2023/01/21 04:58:17;;;;;;;171.70;43.30;;;-1.90;99.90;;;;;;5134945;27;20039;-30
2023/01/21 05:00:43;;;;;;;157.30;42.13;;;-1.80;99.90;;;;;;5116802;27;20047;-30
2023/01/21 05:03:08;;;;;;;160.77;43.83;;;-1.90;99.90;;;;;;5116601;27;20435;-30
2023/01/21 05:05:34;;;;;;;163.70;45.33;;;-1.80;99.90;;;;;;5134865;27;20066;-31
2023/01/21 05:08:00;;;;;;;165.83;45.43;;;-1.80;99.90;;;;;;5117269;27;20047;-30
2023/01/21 05:10:26;;;;;;;178.53;47.60;;;-1.80;99.90;;;;;;5135335;27;20050;-30
2023/01/21 05:12:51;;;;;;;177.83;45.40;;;-1.70;99.90;;;;;;5116579;27;20392;-30
2023/01/21 05:15:17;;;;;;;149.30;40.53;;;-1.70;99.90;;;;;;5134728;27;20471;-30
2023/01/21 05:17:43;;;;;;;160.40;42.27;;;-1.70;99.90;;;;;;5116943;28;20046;-30
2023/01/21 05:20:09;;;;;;;161.80;41.77;;;-1.70;99.90;;;;;;5134680;27;20039;-30
2023/01/21 05:22:35;;;;;;;159.63;43.57;;;-1.70;99.90;;;;;;5134569;27;20549;-30
2023/01/21 05:25:01;;;;;;;159.73;41.37;;;-1.70;99.90;;;;;;5116313;28;20039;-30
2023/01/21 05:27:27;;;;;;;150.37;43.13;;;-1.70;99.90;;;;;;5116072;28;20092;-31
2023/01/21 05:29:52;;;;;;;165.33;42.70;;;-1.80;99.90;;;;;;5134491;27;20043;-31
2023/01/21 05:32:18;;;;;;;149.73;42.73;;;-1.80;99.90;;;;;;5134839;28;20130;-30
2023/01/21 05:34:44;;;;;;;140.80;39.63;;;-1.80;99.90;;;;;;5117040;28;20043;-30
2023/01/21 05:37:11;;;;;;;146.33;42.93;;;-1.90;99.90;;;;;;5134174;28;20513;-30
2023/01/21 05:39:37;;;;;;;144.60;42.43;;;-1.90;99.90;;;;;;5135321;28;20088;-30
2023/01/21 05:42:03;;;;;;;143.47;41.33;;;-1.90;99.90;;;;;;5134473;28;20439;-31
2023/01/21 05:44:28;;;;;;;144.13;40.07;;;-2.00;99.90;;;;;;5134441;28;20049;-30
2023/01/21 05:46:54;;;;;;;154.17;40.67;;;-2.00;99.90;;;;;;5134339;28;20047;-30
2023/01/21 05:49:20;;;;;;;139.50;42.20;;;-2.00;99.90;;;;;;5116075;28;20096;-31
2023/01/21 05:51:45;;;;;;;141.33;41.90;;;-2.00;99.90;;;;;;5133914;28;20062;-30
2023/01/21 05:54:11;;;;;;;135.77;41.77;;;-2.00;99.90;;;;;;5134319;28;20043;-31
2023/01/21 05:56:37;;;;;;;138.87;41.43;;;-2.10;99.90;;;;;;5134293;28;20120;-31
2023/01/21 05:59:02;;;;;;;133.30;40.67;;;-2.20;99.90;;;;;;5134804;28;20054;-30
2023/01/21 06:01:28;;;;;;;133.97;41.40;;;-2.30;99.90;;;;;;5134873;28;20134;-31
2023/01/21 06:03:54;;;;;;;137.53;41.90;;;-2.40;99.90;;;;;;5134859;28;20047;-30
2023/01/21 06:06:20;;;;;;;147.40;39.47;;;-2.40;99.90;;;;;;5134210;28;20043;-30
2023/01/21 06:08:46;;;;;;;156.13;40.10;;;-2.50;99.90;;;;;;5115759;28;20062;-30
2023/01/21 06:11:11;;;;;;;116.33;37.63;;;-2.60;99.90;;;;;;5134224;28;20047;-30
2023/01/21 06:13:37;;;;;;;135.87;41.77;;;-2.60;99.90;;;;;;5134151;27;20104;-29
2023/01/21 06:16:03;;;;;;;143.33;41.73;;;-2.60;99.90;;;;;;5119754;27;20043;-31
2023/01/21 06:18:29;;;;;;;138.60;41.70;;;-2.70;99.90;;;;;;5119754;27;20481;-29
2023/01/21 06:20:59;;;;;;;141.57;43.93;;;-2.70;99.90;;;;;;5137596;27;20054;-32
2023/01/21 06:23:25;;;;;;;142.70;40.93;;;-2.80;99.90;;;;;;5119651;27;20050;-29
2023/01/21 06:25:50;;;;;;;152.00;42.77;;;-2.90;99.90;;;;;;5138380;27;20039;-30
2023/01/21 06:28:16;;;;;;;141.00;40.83;;;-2.90;99.90;;;;;;5137648;27;20058;-30
2023/01/21 06:30:42;;;;;;;135.20;39.23;;;-3.00;99.90;;;;;;5137789;27;20047;-30
2023/01/21 06:33:08;;;;;;;158.07;44.50;;;-3.00;99.90;;;;;;5137372;27;20046;-30
2023/01/21 06:35:35;;;;;;;135.03;41.63;;;-3.10;99.90;;;;;;5137299;27;20047;-29
2023/01/21 06:38:01;;;;;;;150.73;42.87;;;-3.10;99.90;;;;;;5119456;27;20489;-29
2023/01/21 06:40:27;;;;;;;139.90;38.27;;;-3.10;99.90;;;;;;5119382;27;20047;-29
2023/01/21 06:42:53;;;;;;;174.50;42.50;;;-3.00;99.90;;;;;;5138044;27;20511;-29
2023/01/21 06:45:19;;;;;;;211.50;43.73;;;-3.00;99.90;;;;;;5137747;27;20047;-30
2023/01/21 06:47:44;;;;;;;212.90;43.83;;;-3.00;99.90;;;;;;5137370;27;20385;-30
2023/01/21 06:50:15;;;;;;;187.33;44.23;;;-3.00;99.90;;;;;;5137986;27;20055;-30
2023/01/21 06:52:45;;;;;;;180.37;44.90;;;-3.10;99.90;;;;;;5137401;27;20405;-30
2023/01/21 06:55:12;;;;;;;184.60;49.40;;;-3.30;99.90;;;;;;5137977;27;20143;-29
2023/01/21 06:57:38;;;;;;;189.83;49.00;;;-3.30;99.90;;;;;;5137203;27;20481;-29
2023/01/21 07:00:07;;;;;;;172.30;44.93;;;-3.40;99.90;;;;;;5137257;27;20047;-30
2023/01/21 07:02:33;;;;;;;168.53;45.20;;;-3.40;99.90;;;;;;5137154;27;20047;-29
2023/01/21 07:04:59;;;;;;;156.57;41.53;;;-3.50;99.90;;;;;;5137925;27;20171;-30
2023/01/21 07:07:24;;;;;;;144.50;39.27;;;-3.60;99.90;;;;;;5119623;27;20042;-29
2023/01/21 07:09:50;;;;;;;135.87;39.83;;;-3.70;99.90;;;;;;5137034;27;20039;-29
2023/01/21 07:12:16;;;;;;;142.40;41.37;;;-3.80;99.90;;;;;;5136938;27;20104;-29
2023/01/21 07:14:41;;;;;;;137.13;39.63;;;-3.80;99.90;;;;;;5136938;27;20047;-29
2023/01/21 07:17:07;;;;;;;162.27;43.23;;;-3.80;99.90;;;;;;5118661;27;20039;-29
2023/01/21 07:19:33;;;;;;;154.37;42.93;;;-3.30;99.90;;;;;;5137320;27;20039;-29
2023/01/21 07:21:58;;;;;;;144.13;40.00;;;-3.70;99.90;;;;;;5118552;27;20153;-30
2023/01/21 07:24:24;;;;;;;167.83;45.53;;;-3.60;99.90;;;;;;5136719;27;20074;-29
2023/01/21 07:26:50;;;;;;;144.37;42.67;;;-3.60;99.90;;;;;;5136294;27;20159;-29
2023/01/21 07:29:15;;;;;;;152.90;43.27;;;-3.60;99.90;;;;;;5137157;27;20055;-29
2023/01/21 07:31:41;;;;;;;164.43;45.33;;;-3.60;99.90;;;;;;5118395;27;20059;-29
2023/01/21 07:34:07;;;;;;;145.40;44.07;;;-3.60;99.90;;;;;;5137028;27;20058;-29
2023/01/21 07:36:32;;;;;;;149.53;43.53;;;-3.70;99.90;;;;;;5137007;27;20058;-30
2023/01/21 07:38:58;;;;;;;156.90;43.33;;;-3.70;99.90;;;;;;5137333;27;20043;-29
2023/01/21 07:41:24;;;;;;;143.87;42.07;;;-3.70;99.90;;;;;;5137250;27;20047;-29
2023/01/21 07:43:50;;;;;;;145.80;43.40;;;-3.80;99.90;;;;;;5137061;27;20051;-29
2023/01/21 07:46:16;;;;;;;156.80;44.10;;;-3.70;99.90;;;;;;5137326;27;20101;-29
2023/01/21 07:48:42;;;;;;;149.70;42.57;;;-3.80;99.90;;;;;;5136213;27;20472;-29
2023/01/21 07:51:08;;;;;;;152.67;42.93;;;-3.70;99.90;;;;;;5136256;27;20059;-29
2023/01/21 07:53:34;;;;;;;146.17;43.83;;;-3.70;99.90;;;;;;5136428;27;20455;-29
2023/01/21 07:56:09;;;;;;;149.00;43.37;;;-3.60;99.90;;;;;;5135774;27;20088;-29
2023/01/21 07:58:35;;;;;;;163.60;44.87;;;-3.60;99.90;;;;;;5118627;27;20043;-30
2023/01/21 08:01:08;;;;;;;171.20;44.57;;;-3.60;99.90;;;;;;5117724;27;20046;-29
2023/01/21 08:03:37;;;;;;;158.52;44.47;;;-3.60;99.90;;;;;;5136800;27;20050;-29
2023/01/21 08:06:05;;;;;;;151.60;44.83;;;-3.60;99.90;;;;;;5136697;27;20085;-29
2023/01/21 08:08:31;;;;;;;153.63;45.40;;;-3.50;99.90;;;;;;5135731;27;20049;-30
2023/01/21 08:10:57;;;;;;;168.80;46.73;;;-3.50;99.90;;;;;;5135777;27;20047;-29
2023/01/21 08:13:23;;;;;;;167.00;45.17;;;-3.40;99.90;;;;;;5135736;27;20092;-29
2023/01/21 08:15:51;;;;;;;156.67;44.10;;;-3.40;99.90;;;;;;5135689;27;20049;-29
2023/01/21 08:18:17;;;;;;;146.70;42.67;;;-3.40;99.90;;;;;;5135642;27;20128;-29
2023/01/21 08:20:43;;;;;;;156.07;43.50;;;-3.30;99.90;;;;;;5135618;27;20039;-29
2023/01/21 08:23:09;;;;;;;154.77;42.87;;;-3.30;99.90;;;;;;5135617;27;20047;-29
2023/01/21 08:25:35;;;;;;;162.57;45.43;;;-3.20;99.90;;;;;;5135482;27;20043;-30
2023/01/21 08:28:00;;;;;;;158.53;43.83;;;-3.10;99.90;;;;;;5135281;27;20092;-30
2023/01/21 08:30:26;;;;;;;193.00;48.87;;;-3.00;99.90;;;;;;5117297;27;20085;-29
2023/01/21 08:32:52;;;;;;;185.27;46.60;;;-2.80;99.90;;;;;;5135919;27;20046;-29
2023/01/21 08:35:18;;;;;;;187.60;46.83;;;-2.40;99.90;;;;;;5135624;27;20074;-30
2023/01/21 08:37:43;;;;;;;214.90;50.90;;;-2.60;99.90;;;;;;5135026;27;20092;-29
2023/01/21 08:40:10;;;;;;;224.67;51.40;;;-2.40;99.90;;;;;;5135207;27;20043;-30
2023/01/21 08:42:35;;;;;;;223.60;52.87;;;-2.30;99.90;;;;;;5135393;27;20385;-30
2023/01/21 08:45:01;;;;;;;214.97;54.07;;;-2.30;99.90;;;;;;5135408;27;20050;-30
2023/01/21 08:47:27;;;;;;;227.97;56.10;;;-2.20;99.90;;;;;;5135301;27;20039;-30
2023/01/21 08:49:53;;;;;;;214.33;57.20;;;-2.10;99.90;;;;;;5135052;27;20085;-31
2023/01/21 08:52:19;;;;;;;201.07;55.03;;;-2.10;99.90;;;;;;5135542;27;20102;-33
2023/01/21 08:54:45;;;;;;;210.87;53.63;;;-2.10;99.90;;;;;;5117239;27;20057;-30
2023/01/21 08:57:11;;;;;;;222.27;58.33;;;-2.10;99.90;;;;;;5134936;27;20043;-30
2023/01/21 08:59:37;;;;;;;206.80;56.67;;;-2.10;99.90;;;;;;5135540;27;20078;-30
2023/01/21 09:02:03;;;;;;;180.30;52.90;;;-2.10;99.90;;;;;;5135444;27;20049;-30
2023/01/21 09:04:29;;;;;;;175.70;51.37;;;-2.20;99.90;;;;;;5134853;27;20122;-31
2023/01/21 09:06:55;;;;;;;191.17;53.43;;;-2.20;99.90;;;;;;5134652;27;20135;-30
2023/01/21 09:09:20;;;;;;;183.93;50.73;;;-2.20;99.90;;;;;;5135105;27;20070;-31
2023/01/21 09:11:46;;;;;;;178.20;50.60;;;-2.10;99.90;;;;;;5135322;27;20047;-30
2023/01/21 09:14:12;;;;;;;177.40;49.33;;;-2.20;99.90;;;;;;5135213;27;20385;-30
2023/01/21 09:16:38;;;;;;;175.53;52.53;;;-2.10;99.90;;;;;;5134571;27;20039;-30
2023/01/21 09:19:03;;;;;;;192.17;53.90;;;-2.10;99.90;;;;;;5117426;28;20051;-29
2023/01/21 09:21:30;;;;;;;190.03;52.77;;;-2.00;99.90;;;;;;5134630;27;20047;-30
2023/01/21 09:23:56;;;;;;;181.63;51.30;;;-1.90;99.90;;;;;;5117333;28;20055;-31
2023/01/21 09:26:22;;;;;;;193.97;54.90;;;-1.90;99.90;;;;;;5134684;28;20051;-29
2023/01/21 09:28:58;;;;;;;196.10;53.10;;;-1.90;99.90;;;;;;5134417;27;20099;-30
2023/01/21 09:31:26;;;;;;;183.73;51.87;;;-1.80;99.90;;;;;;5134540;28;20046;-30
2023/01/21 09:33:55;;;;;;;214.57;56.80;;;-1.80;99.90;;;;;;5134505;28;20039;-30
2023/01/21 09:36:23;;;;;;;216.57;58.37;;;-1.70;99.90;;;;;;5134746;28;20130;-30
2023/01/21 09:38:50;;;;;;;195.67;55.97;;;-1.60;99.90;;;;;;5134482;28;20039;-30
2023/01/21 09:41:37;;;;;;;202.63;56.90;;;-1.50;99.90;;;;;;5116586;28;20477;-31
2023/01/21 09:44:24;;;;;;;201.93;57.47;;;-1.40;99.90;;;;;;5116444;28;20075;-30
2023/01/21 09:47:02;;;;;;;187.90;55.63;;;-1.20;99.90;;;;;;5134960;28;20135;-31
2023/01/21 09:49:48;;;;;;;195.73;53.80;;;-1.10;99.90;;;;;;5135746;27;20401;-31
2023/01/21 09:52:21;;;;;;;212.23;56.10;;;-1.10;99.90;;;;;;5119723;27;20140;-32
2023/01/21 09:54:47;;;;;;;192.87;53.73;;;-1.00;99.90;;;;;;5138488;27;20130;-32
2023/01/21 09:57:34;;;;;;;176.17;52.43;;;-0.90;99.90;;;;;;5138419;27;20075;-31
2023/01/21 10:00:30;;;;;;;172.77;52.90;;;-0.90;99.90;;;;;;5138864;27;20089;-31
2023/01/21 10:03:07;;;;;;;173.93;52.57;;;-0.70;99.90;;;;;;5121048;27;20055;-31
2023/01/21 10:05:49;;;;;;;186.37;54.10;;;-0.50;99.90;;;;;;5138286;27;20043;-31
2023/01/21 10:08:30;;;;;;;182.87;52.93;;;-0.50;99.90;;;;;;5138176;27;20122;-31
2023/01/21 10:11:00;;;;;;;168.03;50.00;;;-0.50;99.90;;;;;;5138203;27;20059;-30
2023/01/21 10:13:35;;;;;;;168.70;50.07;;;-0.30;99.90;;;;;;5138154;27;20053;-31
2023/01/21 10:16:25;;;;;;;172.13;49.93;;;-0.20;99.90;;;;;;5119769;27;20074;-30
2023/01/21 10:18:54;;;;;;;140.17;44.97;;;0.10;99.90;;;;;;5138028;27;20065;-30
2023/01/21 10:21:34;;;;;;;135.70;45.63;;;0.10;99.90;;;;;;5137928;27;20070;-30
2023/01/21 10:24:10;;;;;;;140.13;47.50;;;0.20;99.90;;;;;;5120110;27;20138;-31
2023/01/21 10:26:36;;;;;;;141.30;48.67;;;0.20;99.90;;;;;;5120584;27;20472;-31
2023/01/21 10:29:02;;;;;;;122.47;45.80;;;0.20;99.90;;;;;;5137729;27;20078;-30
2023/01/21 10:31:39;;;;;;;126.50;45.57;;;0.30;99.90;;;;;;5137808;27;20043;-31
2023/01/21 10:34:22;;;;;;;149.83;49.83;;;0.60;99.90;;;;;;5119373;27;20153;-30
2023/01/21 10:36:55;;;;;;;129.73;44.97;;;0.70;99.90;;;;;;5120452;27;20055;-30
2023/01/21 10:39:32;;;;;;;127.30;44.63;;;1.00;99.90;;;;;;5137934;27;20083;-31
2023/01/21 10:42:17;;;;;;;125.13;43.60;;;1.00;99.90;;;;;;5138188;27;20057;-30
2023/01/21 10:44:51;;;;;;;108.13;45.70;;;1.10;99.90;;;;;;5118941;27;20535;-31
2023/01/21 10:47:39;;;;;;;111.90;41.40;;;1.20;99.90;;;;;;5138013;27;20490;-31
2023/01/21 10:50:36;;;;;;;89.57;36.43;;;1.30;99.90;;;;;;5137995;27;20043;-31
2023/01/21 10:53:18;;;;;;;80.07;35.70;;;1.30;99.90;;;;;;5118771;27;20059;-32
2023/01/21 10:56:12;;;;;;;76.38;32.28;;;1.30;99.90;;;;;;5137374;27;20083;-32
2023/01/21 10:58:43;;;;;;;66.53;31.77;;;1.40;99.90;;;;;;5136241;27;20059;-33
2023/01/21 11:01:19;;;;;;;63.33;30.17;;;1.30;99.90;;;;;;5118969;27;20490;-32
2023/01/21 11:03:49;;;;;;;55.40;28.00;;;1.30;99.90;;;;;;5137509;27;20069;-32
2023/01/21 11:06:16;;;;;;;54.75;27.05;;;1.40;99.90;;;;;;5137925;27;20059;-33
2023/01/21 11:08:46;;;;;;;51.75;26.77;;;1.50;99.90;;;;;;5136974;27;20050;-32
2023/01/21 11:11:16;;;;;;;42.00;24.97;;;1.60;99.90;;;;;;5137030;27;20042;-32
2023/01/21 11:13:42;;;;;;;47.23;26.17;;;1.70;99.90;;;;;;5118858;27;20477;-32
2023/01/21 11:16:08;;;;;;;40.45;23.13;;;1.80;99.90;;;;;;5136939;27;20054;-32
2023/01/21 11:18:41;;;;;;;41.05;23.35;;;1.90;99.90;;;;;;5136833;27;20576;-32
2023/01/21 11:21:18;;;;;;;41.85;23.15;;;2.10;99.90;;;;;;5119575;27;20047;-33
2023/01/21 11:24:04;;;;;;;38.17;22.42;;;2.10;99.90;;;;;;5101638;27;20047;-32
2023/01/21 11:26:35;;;;;;;36.97;20.65;;;2.20;99.90;;;;;;5118960;27;20160;-32
2023/01/21 11:29:15;;;;;;;35.90;20.00;;;2.40;99.90;;;;;;5136538;27;20050;-33
2023/01/21 11:31:45;;;;;;;35.58;20.15;;;2.50;99.90;;;;;;5136631;27;20107;-34
2023/01/21 11:34:19;;;;;;;33.38;20.25;;;2.60;99.90;;;;;;5118990;27;20393;-33
2023/01/21 11:37:03;;;;;;;29.67;17.55;;;2.60;99.90;;;;;;5137399;27;20103;-33
2023/01/21 11:39:47;;;;;;;28.92;18.10;;;2.70;99.90;;;;;;5136448;27;20477;-33
2023/01/21 11:42:16;;;;;;;27.85;17.75;;;2.70;99.90;;;;;;5101987;27;20532;-34
2023/01/21 11:44:54;;;;;;;28.10;17.98;;;3.00;99.90;;;;;;5137177;27;20046;-33
2023/01/21 11:47:51;;;;;;;26.55;15.85;;;2.90;99.90;;;;;;5117788;27;20049;-34
2023/01/21 11:50:24;;;;;;;25.15;14.68;;;3.10;99.90;;;;;;5136879;27;20061;-33
2023/01/21 11:53:12;;;;;;;28.15;16.38;;;3.20;99.90;;;;;;5136342;27;20081;-33
2023/01/21 11:55:44;;;;;;;22.55;13.80;;;3.20;99.90;;;;;;5136124;27;20047;-33
2023/01/21 11:58:27;;;;;;;22.45;14.75;;;3.40;99.90;;;;;;5136109;27;20039;-34
2023/01/21 12:01:02;;;;;;;24.40;13.50;;;3.40;99.90;;;;;;5136401;27;20451;-32
2023/01/21 12:03:39;;;;;;;17.67;12.20;;;3.50;99.90;;;;;;5118528;27;20043;-33
2023/01/21 12:06:06;;;;;;;19.45;11.85;;;3.50;99.90;;;;;;5136604;27;20134;-33
2023/01/21 12:08:36;;;;;;;18.60;11.90;;;3.50;99.90;;;;;;5135683;27;20039;-32
2023/01/21 12:11:05;;;;;;;18.25;11.57;;;3.50;94.10;;;;;;5135843;27;20046;-32
2023/01/21 12:13:37;;;;;;;20.23;11.00;;;3.40;99.90;;;;;;5135748;27;20051;-32
2023/01/21 12:16:26;;;;;;;18.60;11.63;;;3.40;99.90;;;;;;5135748;27;20043;-32
2023/01/21 12:19:25;;;;;;;19.50;12.25;;;3.40;99.90;;;;;;5135757;27;20051;-32
2023/01/21 12:22:14;;;;;;;17.08;11.50;;;3.40;99.90;;;;;;5135618;27;20043;-32
2023/01/21 12:25:00;;;;;;;16.00;11.07;;;3.50;99.90;;;;;;5105797;27;20138;-32
2023/01/21 12:27:55;;;;;;;16.30;10.48;;;3.60;96.50;;;;;;5135812;27;20047;-32
2023/01/21 12:30:30;;;;;;;10.32;7.78;;;3.60;1.00;;;;;;5122041;27;20054;-34
2023/01/21 12:33:33;;;;;;;10.48;7.00;;;3.70;1.00;;;;;;5135878;27;20077;-32
2023/01/21 12:36:15;;;;;;;10.23;6.53;;;3.70;99.90;;;;;;5121950;27;20504;-32
2023/01/21 12:38:47;;;;;;;8.75;6.15;;;3.80;1.00;;;;;;5136196;27;20070;-32
2023/01/21 12:41:25;;;;;;;8.60;5.60;;;4.10;99.90;;;;;;5135289;27;20054;-33
2023/01/21 12:44:00;;;;;;;7.00;5.63;;;4.30;99.90;;;;;;5136127;27;20039;-34
2023/01/21 12:46:35;;;;;;;9.82;6.40;;;4.70;99.90;;;;;;5117036;27;20047;-34